sensor_id;sensor_type;location;lat;lon;timestamp;P1;durP1;ratioP1;P2;durP2;ratioP2
74100;SDS011;62462;52.530;21.682;2023-03-26T00:01:55;13.45;;;6.30;;
74100;SDS011;62462;52.530;21.682;2023-03-26T00:04:22;10.77;;;6.53;;
74100;SDS011;62462;52.530;21.682;2023-03-26T00:06:49;13.85;;;6.65;;
74100;SDS011;62462;52.530;21.682;2023-03-26T00:09:16;11.48;;;6.38;;
74100;SDS011;62462;52.530;21.682;2023-03-26T00:11:43;14.73;;;7.18;;
74100;SDS011;62462;52.530;21.682;2023-03-26T00:14:10;12.43;;;6.40;;
74100;SDS011;62462;52.530;21.682;2023-03-26T00:16:38;11.70;;;6.55;;
74100;SDS011;62462;52.530;21.682;2023-03-26T00:19:07;10.93;;;6.18;;
74100;SDS011;62462;52.530;21.682;2023-03-26T00:21:33;10.68;;;6.05;;
74100;SDS011;62462;52.530;21.682;2023-03-26T00:24:00;13.23;;;7.25;;
74100;SDS011;62462;52.530;21.682;2023-03-26T00:26:29;13.40;;;7.28;;
74100;SDS011;62462;52.530;21.682;2023-03-26T00:28:58;12.23;;;6.97;;
74100;SDS011;62462;52.530;21.682;2023-03-26T00:31:24;11.68;;;6.25;;
74100;SDS011;62462;52.530;21.682;2023-03-26T00:33:51;13.73;;;6.88;;
74100;SDS011;62462;52.530;21.682;2023-03-26T00:36:20;13.73;;;7.38;;
74100;SDS011;62462;52.530;21.682;2023-03-26T00:38:49;11.68;;;6.85;;
74100;SDS011;62462;52.530;21.682;2023-03-26T00:41:17;12.40;;;7.57;;
74100;SDS011;62462;52.530;21.682;2023-03-26T00:43:50;11.50;;;6.65;;
74100;SDS011;62462;52.530;21.682;2023-03-26T00:46:20;13.85;;;7.15;;
74100;SDS011;62462;52.530;21.682;2023-03-26T00:48:46;13.25;;;7.60;;
74100;SDS011;62462;52.530;21.682;2023-03-26T00:51:13;14.48;;;8.05;;
74100;SDS011;62462;52.530;21.682;2023-03-26T00:53:40;15.40;;;7.38;;
74100;SDS011;62462;52.530;21.682;2023-03-26T00:56:08;13.57;;;7.20;;
74100;SDS011;62462;52.530;21.682;2023-03-26T00:58:34;12.55;;;7.18;;
74100;SDS011;62462;52.530;21.682;2023-03-26T01:01:02;13.98;;;7.35;;
74100;SDS011;62462;52.530;21.682;2023-03-26T01:03:31;12.63;;;7.75;;
74100;SDS011;62462;52.530;21.682;2023-03-26T01:08:42;12.30;;;7.15;;
74100;SDS011;62462;52.530;21.682;2023-03-26T01:11:15;13.25;;;6.88;;
74100;SDS011;62462;52.530;21.682;2023-03-26T01:13:49;14.07;;;7.00;;
74100;SDS011;62462;52.530;21.682;2023-03-26T01:17:04;12.30;;;7.38;;
74100;SDS011;62462;52.530;21.682;2023-03-26T01:22:14;12.90;;;6.43;;
74100;SDS011;62462;52.530;21.682;2023-03-26T01:24:45;11.93;;;6.38;;
74100;SDS011;62462;52.530;21.682;2023-03-26T01:30:04;11.95;;;7.00;;
74100;SDS011;62462;52.530;21.682;2023-03-26T01:46:33;12.68;;;6.40;;
74100;SDS011;62462;52.530;21.682;2023-03-26T01:49:01;12.93;;;6.93;;
74100;SDS011;62462;52.530;21.682;2023-03-26T01:51:31;12.57;;;6.53;;
74100;SDS011;62462;52.530;21.682;2023-03-26T01:53:58;16.45;;;8.10;;
74100;SDS011;62462;52.530;21.682;2023-03-26T01:56:30;11.52;;;6.72;;
74100;SDS011;62462;52.530;21.682;2023-03-26T01:59:15;11.73;;;6.55;;
74100;SDS011;62462;52.530;21.682;2023-03-26T02:07:34;12.32;;;6.70;;
74100;SDS011;62462;52.530;21.682;2023-03-26T02:10:23;12.60;;;6.30;;
74100;SDS011;62462;52.530;21.682;2023-03-26T02:13:01;14.70;;;6.82;;
74100;SDS011;62462;52.530;21.682;2023-03-26T02:15:28;12.98;;;7.00;;
74100;SDS011;62462;52.530;21.682;2023-03-26T02:17:53;13.02;;;6.88;;
74100;SDS011;62462;52.530;21.682;2023-03-26T02:20:19;13.18;;;6.68;;
74100;SDS011;62462;52.530;21.682;2023-03-26T02:22:46;11.40;;;6.60;;
74100;SDS011;62462;52.530;21.682;2023-03-26T02:25:16;11.07;;;6.28;;
74100;SDS011;62462;52.530;21.682;2023-03-26T02:27:44;12.02;;;6.35;;
74100;SDS011;62462;52.530;21.682;2023-03-26T02:30:12;11.85;;;6.63;;
74100;SDS011;62462;52.530;21.682;2023-03-26T02:32:44;10.52;;;6.03;;
74100;SDS011;62462;52.530;21.682;2023-03-26T02:35:10;12.13;;;6.43;;
74100;SDS011;62462;52.530;21.682;2023-03-26T02:37:37;13.60;;;6.47;;
74100;SDS011;62462;52.530;21.682;2023-03-26T02:40:04;12.38;;;5.75;;
74100;SDS011;62462;52.530;21.682;2023-03-26T02:42:35;12.70;;;6.15;;
74100;SDS011;62462;52.530;21.682;2023-03-26T02:45:02;12.75;;;6.07;;
74100;SDS011;62462;52.530;21.682;2023-03-26T02:47:28;12.35;;;6.68;;
74100;SDS011;62462;52.530;21.682;2023-03-26T02:49:55;13.68;;;6.25;;
74100;SDS011;62462;52.530;21.682;2023-03-26T02:52:21;12.15;;;5.93;;
74100;SDS011;62462;52.530;21.682;2023-03-26T02:54:46;9.85;;;5.72;;
74100;SDS011;62462;52.530;21.682;2023-03-26T02:57:12;10.32;;;5.57;;
74100;SDS011;62462;52.530;21.682;2023-03-26T02:59:38;10.23;;;5.55;;
74100;SDS011;62462;52.530;21.682;2023-03-26T03:02:04;10.00;;;5.10;;
74100;SDS011;62462;52.530;21.682;2023-03-26T03:04:30;9.30;;;5.63;;
74100;SDS011;62462;52.530;21.682;2023-03-26T03:06:56;12.15;;;6.13;;
74100;SDS011;62462;52.530;21.682;2023-03-26T03:09:22;12.55;;;5.63;;
74100;SDS011;62462;52.530;21.682;2023-03-26T03:11:51;10.60;;;5.03;;
74100;SDS011;62462;52.530;21.682;2023-03-26T03:14:17;9.55;;;5.30;;
74100;SDS011;62462;52.530;21.682;2023-03-26T03:16:44;7.60;;;4.20;;
74100;SDS011;62462;52.530;21.682;2023-03-26T03:19:10;11.02;;;5.40;;
74100;SDS011;62462;52.530;21.682;2023-03-26T03:21:36;10.77;;;5.10;;
74100;SDS011;62462;52.530;21.682;2023-03-26T03:24:02;9.82;;;5.28;;
74100;SDS011;62462;52.530;21.682;2023-03-26T03:26:29;9.27;;;5.28;;
74100;SDS011;62462;52.530;21.682;2023-03-26T03:28:55;9.73;;;5.22;;
74100;SDS011;62462;52.530;21.682;2023-03-26T03:31:22;11.35;;;5.55;;
74100;SDS011;62462;52.530;21.682;2023-03-26T03:33:49;9.20;;;5.38;;
74100;SDS011;62462;52.530;21.682;2023-03-26T03:36:17;9.73;;;5.45;;
74100;SDS011;62462;52.530;21.682;2023-03-26T03:38:46;9.10;;;4.53;;
74100;SDS011;62462;52.530;21.682;2023-03-26T03:41:12;8.18;;;4.38;;
74100;SDS011;62462;52.530;21.682;2023-03-26T03:43:38;10.00;;;4.57;;
74100;SDS011;62462;52.530;21.682;2023-03-26T03:46:05;10.52;;;5.45;;
74100;SDS011;62462;52.530;21.682;2023-03-26T03:48:31;11.35;;;4.93;;
74100;SDS011;62462;52.530;21.682;2023-03-26T03:50:57;8.32;;;4.43;;
74100;SDS011;62462;52.530;21.682;2023-03-26T03:53:23;11.80;;;4.88;;
74100;SDS011;62462;52.530;21.682;2023-03-26T03:55:53;9.85;;;4.85;;
74100;SDS011;62462;52.530;21.682;2023-03-26T03:58:23;10.27;;;5.63;;
74100;SDS011;62462;52.530;21.682;2023-03-26T04:00:53;10.88;;;5.45;;
74100;SDS011;62462;52.530;21.682;2023-03-26T04:03:25;11.63;;;6.15;;
74100;SDS011;62462;52.530;21.682;2023-03-26T04:05:54;8.75;;;5.13;;
74100;SDS011;62462;52.530;21.682;2023-03-26T04:08:21;10.52;;;6.00;;
74100;SDS011;62462;52.530;21.682;2023-03-26T04:10:47;9.32;;;5.28;;
74100;SDS011;62462;52.530;21.682;2023-03-26T04:13:14;8.85;;;4.85;;
74100;SDS011;62462;52.530;21.682;2023-03-26T04:15:41;10.43;;;5.18;;
74100;SDS011;62462;52.530;21.682;2023-03-26T04:18:07;9.25;;;5.57;;
74100;SDS011;62462;52.530;21.682;2023-03-26T04:20:37;9.73;;;5.78;;
74100;SDS011;62462;52.530;21.682;2023-03-26T04:23:10;10.98;;;5.75;;
74100;SDS011;62462;52.530;21.682;2023-03-26T04:25:43;10.48;;;4.85;;
74100;SDS011;62462;52.530;21.682;2023-03-26T04:28:14;8.15;;;5.20;;
74100;SDS011;62462;52.530;21.682;2023-03-26T04:30:50;11.00;;;5.53;;
74100;SDS011;62462;52.530;21.682;2023-03-26T04:33:18;9.75;;;5.65;;
74100;SDS011;62462;52.530;21.682;2023-03-26T04:35:45;11.57;;;5.13;;
74100;SDS011;62462;52.530;21.682;2023-03-26T04:38:12;10.90;;;4.85;;
74100;SDS011;62462;52.530;21.682;2023-03-26T04:40:41;9.00;;;4.75;;
74100;SDS011;62462;52.530;21.682;2023-03-26T04:43:12;11.93;;;5.75;;
74100;SDS011;62462;52.530;21.682;2023-03-26T04:45:40;8.63;;;5.38;;
74100;SDS011;62462;52.530;21.682;2023-03-26T04:48:07;9.02;;;5.28;;
74100;SDS011;62462;52.530;21.682;2023-03-26T04:50:38;11.82;;;5.88;;
74100;SDS011;62462;52.530;21.682;2023-03-26T04:53:05;10.65;;;5.50;;
74100;SDS011;62462;52.530;21.682;2023-03-26T04:55:33;10.43;;;5.60;;
74100;SDS011;62462;52.530;21.682;2023-03-26T04:58:03;10.10;;;5.65;;
74100;SDS011;62462;52.530;21.682;2023-03-26T05:00:30;10.57;;;5.75;;
74100;SDS011;62462;52.530;21.682;2023-03-26T05:02:56;11.02;;;5.75;;
74100;SDS011;62462;52.530;21.682;2023-03-26T05:05:25;10.02;;;5.85;;
74100;SDS011;62462;52.530;21.682;2023-03-26T05:07:53;10.30;;;6.07;;
74100;SDS011;62462;52.530;21.682;2023-03-26T05:10:19;9.98;;;5.72;;
74100;SDS011;62462;52.530;21.682;2023-03-26T05:12:45;9.20;;;5.32;;
74100;SDS011;62462;52.530;21.682;2023-03-26T05:15:12;8.30;;;5.20;;
74100;SDS011;62462;52.530;21.682;2023-03-26T05:17:39;7.10;;;5.00;;
74100;SDS011;62462;52.530;21.682;2023-03-26T05:20:07;12.27;;;5.10;;
74100;SDS011;62462;52.530;21.682;2023-03-26T05:22:46;7.93;;;4.43;;
74100;SDS011;62462;52.530;21.682;2023-03-26T05:25:16;10.70;;;5.18;;
74100;SDS011;62462;52.530;21.682;2023-03-26T05:27:43;11.63;;;5.28;;
74100;SDS011;62462;52.530;21.682;2023-03-26T05:30:10;13.25;;;5.60;;
74100;SDS011;62462;52.530;21.682;2023-03-26T05:32:39;15.65;;;6.65;;
74100;SDS011;62462;52.530;21.682;2023-03-26T05:35:05;11.65;;;5.72;;
74100;SDS011;62462;52.530;21.682;2023-03-26T05:37:31;12.35;;;6.20;;
74100;SDS011;62462;52.530;21.682;2023-03-26T05:39:57;11.45;;;5.60;;
74100;SDS011;62462;52.530;21.682;2023-03-26T05:42:24;9.65;;;5.78;;
74100;SDS011;62462;52.530;21.682;2023-03-26T05:44:50;10.27;;;5.85;;
74100;SDS011;62462;52.530;21.682;2023-03-26T05:47:16;9.10;;;5.60;;
74100;SDS011;62462;52.530;21.682;2023-03-26T05:49:43;11.68;;;6.30;;
74100;SDS011;62462;52.530;21.682;2023-03-26T05:52:08;13.68;;;5.38;;
74100;SDS011;62462;52.530;21.682;2023-03-26T05:54:34;10.10;;;5.38;;
74100;SDS011;62462;52.530;21.682;2023-03-26T05:57:00;11.15;;;5.38;;
74100;SDS011;62462;52.530;21.682;2023-03-26T05:59:26;13.57;;;6.13;;
74100;SDS011;62462;52.530;21.682;2023-03-26T06:01:52;12.32;;;6.05;;
74100;SDS011;62462;52.530;21.682;2023-03-26T06:04:19;10.38;;;5.85;;
74100;SDS011;62462;52.530;21.682;2023-03-26T06:06:45;11.88;;;5.70;;
74100;SDS011;62462;52.530;21.682;2023-03-26T06:09:11;12.23;;;4.75;;
74100;SDS011;62462;52.530;21.682;2023-03-26T06:11:38;10.50;;;4.85;;
74100;SDS011;62462;52.530;21.682;2023-03-26T06:14:04;20.65;;;9.70;;
74100;SDS011;62462;52.530;21.682;2023-03-26T06:16:31;8.13;;;5.00;;
74100;SDS011;62462;52.530;21.682;2023-03-26T06:18:57;11.05;;;4.88;;
74100;SDS011;62462;52.530;21.682;2023-03-26T06:21:24;11.35;;;6.35;;
74100;SDS011;62462;52.530;21.682;2023-03-26T06:23:50;22.58;;;10.88;;
74100;SDS011;62462;52.530;21.682;2023-03-26T06:26:16;8.80;;;4.80;;
74100;SDS011;62462;52.530;21.682;2023-03-26T06:28:42;11.20;;;5.53;;
74100;SDS011;62462;52.530;21.682;2023-03-26T06:31:08;14.75;;;5.88;;
74100;SDS011;62462;52.530;21.682;2023-03-26T06:33:34;14.43;;;6.60;;
74100;SDS011;62462;52.530;21.682;2023-03-26T06:36:00;16.85;;;5.90;;
74100;SDS011;62462;52.530;21.682;2023-03-26T06:38:25;8.30;;;3.92;;
74100;SDS011;62462;52.530;21.682;2023-03-26T06:40:51;8.40;;;4.40;;
74100;SDS011;62462;52.530;21.682;2023-03-26T06:43:17;12.38;;;5.80;;
74100;SDS011;62462;52.530;21.682;2023-03-26T06:45:43;9.30;;;4.72;;
74100;SDS011;62462;52.530;21.682;2023-03-26T06:48:09;9.40;;;4.40;;
74100;SDS011;62462;52.530;21.682;2023-03-26T06:50:35;11.60;;;5.97;;
74100;SDS011;62462;52.530;21.682;2023-03-26T06:53:01;13.32;;;6.82;;
74100;SDS011;62462;52.530;21.682;2023-03-26T06:55:27;13.82;;;6.13;;
74100;SDS011;62462;52.530;21.682;2023-03-26T06:57:53;8.68;;;4.10;;
74100;SDS011;62462;52.530;21.682;2023-03-26T07:00:22;8.70;;;4.10;;
74100;SDS011;62462;52.530;21.682;2023-03-26T07:02:48;7.97;;;3.55;;
74100;SDS011;62462;52.530;21.682;2023-03-26T07:05:14;6.30;;;3.42;;
74100;SDS011;62462;52.530;21.682;2023-03-26T07:07:40;11.27;;;3.70;;
74100;SDS011;62462;52.530;21.682;2023-03-26T07:10:06;6.53;;;3.28;;
74100;SDS011;62462;52.530;21.682;2023-03-26T07:12:33;7.15;;;3.30;;
74100;SDS011;62462;52.530;21.682;2023-03-26T07:14:59;7.53;;;3.35;;
74100;SDS011;62462;52.530;21.682;2023-03-26T07:17:27;6.20;;;3.35;;
74100;SDS011;62462;52.530;21.682;2023-03-26T07:19:53;4.90;;;3.10;;
74100;SDS011;62462;52.530;21.682;2023-03-26T07:22:20;7.15;;;3.75;;
74100;SDS011;62462;52.530;21.682;2023-03-26T07:24:48;7.95;;;3.40;;
74100;SDS011;62462;52.530;21.682;2023-03-26T07:27:27;10.48;;;3.85;;
74100;SDS011;62462;52.530;21.682;2023-03-26T07:30:14;8.25;;;3.97;;
74100;SDS011;62462;52.530;21.682;2023-03-26T07:38:21;9.18;;;4.20;;
74100;SDS011;62462;52.530;21.682;2023-03-26T07:46:54;7.90;;;4.20;;
74100;SDS011;62462;52.530;21.682;2023-03-26T07:49:20;7.95;;;3.97;;
74100;SDS011;62462;52.530;21.682;2023-03-26T07:51:46;8.10;;;4.10;;
74100;SDS011;62462;52.530;21.682;2023-03-26T07:54:12;8.02;;;3.95;;
74100;SDS011;62462;52.530;21.682;2023-03-26T07:56:41;6.63;;;3.40;;
74100;SDS011;62462;52.530;21.682;2023-03-26T07:59:18;7.80;;;4.00;;
74100;SDS011;62462;52.530;21.682;2023-03-26T08:07:40;7.70;;;3.97;;
74100;SDS011;62462;52.530;21.682;2023-03-26T08:10:34;6.65;;;3.22;;
74100;SDS011;62462;52.530;21.682;2023-03-26T08:19:27;6.95;;;3.25;;
74100;SDS011;62462;52.530;21.682;2023-03-26T08:22:59;6.63;;;3.20;;
74100;SDS011;62462;52.530;21.682;2023-03-26T08:30:42;6.15;;;2.95;;
74100;SDS011;62462;52.530;21.682;2023-03-26T08:33:15;5.57;;;3.22;;
74100;SDS011;62462;52.530;21.682;2023-03-26T08:35:45;5.63;;;2.80;;
74100;SDS011;62462;52.530;21.682;2023-03-26T08:38:13;7.00;;;3.03;;
74100;SDS011;62462;52.530;21.682;2023-03-26T08:54:51;5.13;;;2.60;;
74100;SDS011;62462;52.530;21.682;2023-03-26T08:57:49;5.20;;;3.13;;
74100;SDS011;62462;52.530;21.682;2023-03-26T09:08:53;4.65;;;2.92;;
74100;SDS011;62462;52.530;21.682;2023-03-26T09:14:42;6.03;;;3.20;;
74100;SDS011;62462;52.530;21.682;2023-03-26T09:31:43;3.63;;;2.65;;
74100;SDS011;62462;52.530;21.682;2023-03-26T09:34:28;3.72;;;2.55;;
74100;SDS011;62462;52.530;21.682;2023-03-26T09:37:16;5.85;;;2.30;;
74100;SDS011;62462;52.530;21.682;2023-03-26T09:39:51;3.38;;;2.55;;
74100;SDS011;62462;52.530;21.682;2023-03-26T09:42:43;4.75;;;2.67;;
74100;SDS011;62462;52.530;21.682;2023-03-26T09:51:14;5.32;;;2.75;;
74100;SDS011;62462;52.530;21.682;2023-03-26T09:59:56;4.10;;;3.10;;
74100;SDS011;62462;52.530;21.682;2023-03-26T10:02:49;4.95;;;3.22;;
74100;SDS011;62462;52.530;21.682;2023-03-26T10:11:01;1.65;;;1.10;;
74100;SDS011;62462;52.530;21.682;2023-03-26T10:13:47;3.42;;;1.50;;
74100;SDS011;62462;52.530;21.682;2023-03-26T10:21:59;0.82;;;0.65;;
74100;SDS011;62462;52.530;21.682;2023-03-26T10:24:50;3.80;;;0.73;;
74100;SDS011;62462;52.530;21.682;2023-03-26T10:27:33;1.98;;;0.57;;
74100;SDS011;62462;52.530;21.682;2023-03-26T10:35:24;1.38;;;0.82;;
74100;SDS011;62462;52.530;21.682;2023-03-26T10:46:01;1.80;;;1.00;;
74100;SDS011;62462;52.530;21.682;2023-03-26T10:51:48;2.45;;;1.20;;
74100;SDS011;62462;52.530;21.682;2023-03-26T10:57:02;2.35;;;1.17;;
74100;SDS011;62462;52.530;21.682;2023-03-26T10:59:37;2.65;;;1.50;;
74100;SDS011;62462;52.530;21.682;2023-03-26T11:05:26;3.42;;;1.92;;
74100;SDS011;62462;52.530;21.682;2023-03-26T11:08:00;2.25;;;1.55;;
74100;SDS011;62462;52.530;21.682;2023-03-26T11:19:01;3.33;;;2.20;;
74100;SDS011;62462;52.530;21.682;2023-03-26T11:21:32;2.38;;;1.75;;
74100;SDS011;62462;52.530;21.682;2023-03-26T11:35:14;5.40;;;3.17;;
74100;SDS011;62462;52.530;21.682;2023-03-26T11:37:52;3.15;;;2.15;;
74100;SDS011;62462;52.530;21.682;2023-03-26T11:40:20;4.35;;;2.90;;
74100;SDS011;62462;52.530;21.682;2023-03-26T11:42:49;3.92;;;2.63;;
74100;SDS011;62462;52.530;21.682;2023-03-26T11:45:21;3.72;;;2.63;;
74100;SDS011;62462;52.530;21.682;2023-03-26T11:47:57;4.95;;;3.20;;
74100;SDS011;62462;52.530;21.682;2023-03-26T11:50:34;5.25;;;2.88;;
74100;SDS011;62462;52.530;21.682;2023-03-26T11:53:12;3.92;;;2.55;;
74100;SDS011;62462;52.530;21.682;2023-03-26T11:55:53;4.72;;;2.60;;
74100;SDS011;62462;52.530;21.682;2023-03-26T12:01:51;4.30;;;2.20;;
74100;SDS011;62462;52.530;21.682;2023-03-26T12:10:03;2.80;;;1.70;;
74100;SDS011;62462;52.530;21.682;2023-03-26T12:12:32;2.55;;;1.42;;
74100;SDS011;62462;52.530;21.682;2023-03-26T12:15:04;2.70;;;1.58;;
74100;SDS011;62462;52.530;21.682;2023-03-26T12:17:40;2.30;;;1.30;;
74100;SDS011;62462;52.530;21.682;2023-03-26T12:22:51;2.60;;;1.65;;
74100;SDS011;62462;52.530;21.682;2023-03-26T12:25:33;1.40;;;1.25;;
74100;SDS011;62462;52.530;21.682;2023-03-26T12:28:02;3.83;;;1.83;;
74100;SDS011;62462;52.530;21.682;2023-03-26T12:33:06;2.47;;;1.98;;
74100;SDS011;62462;52.530;21.682;2023-03-26T12:35:42;3.92;;;2.20;;
74100;SDS011;62462;52.530;21.682;2023-03-26T12:43:37;2.13;;;1.10;;
74100;SDS011;62462;52.530;21.682;2023-03-26T12:46:18;3.85;;;1.30;;
74100;SDS011;62462;52.530;21.682;2023-03-26T12:48:48;2.53;;;1.17;;
74100;SDS011;62462;52.530;21.682;2023-03-26T13:05:10;1.80;;;0.95;;
74100;SDS011;62462;52.530;21.682;2023-03-26T13:11:32;2.67;;;1.08;;
74100;SDS011;62462;52.530;21.682;2023-03-26T13:19:04;1.15;;;0.60;;
74100;SDS011;62462;52.530;21.682;2023-03-26T13:21:53;1.45;;;0.70;;
74100;SDS011;62462;52.530;21.682;2023-03-26T13:24:28;1.92;;;0.80;;
74100;SDS011;62462;52.530;21.682;2023-03-26T13:27:18;0.82;;;0.60;;
74100;SDS011;62462;52.530;21.682;2023-03-26T13:45:49;2.03;;;1.10;;
74100;SDS011;62462;52.530;21.682;2023-03-26T13:48:37;3.63;;;1.60;;
74100;SDS011;62462;52.530;21.682;2023-03-26T13:51:18;1.70;;;1.30;;
74100;SDS011;62462;52.530;21.682;2023-03-26T13:56:52;4.15;;;1.70;;
74100;SDS011;62462;52.530;21.682;2023-03-26T14:03:00;4.63;;;2.15;;
74100;SDS011;62462;52.530;21.682;2023-03-26T14:05:38;2.95;;;1.15;;
74100;SDS011;62462;52.530;21.682;2023-03-26T14:08:15;2.17;;;1.08;;
74100;SDS011;62462;52.530;21.682;2023-03-26T14:10:43;3.25;;;1.65;;
74100;SDS011;62462;52.530;21.682;2023-03-26T14:13:21;3.10;;;1.30;;
74100;SDS011;62462;52.530;21.682;2023-03-26T14:16:25;1.73;;;1.27;;
74100;SDS011;62462;52.530;21.682;2023-03-26T14:19:12;1.83;;;1.30;;
74100;SDS011;62462;52.530;21.682;2023-03-26T14:22:02;1.75;;;1.30;;
74100;SDS011;62462;52.530;21.682;2023-03-26T14:33:44;2.60;;;1.70;;
74100;SDS011;62462;52.530;21.682;2023-03-26T14:42:01;2.22;;;1.50;;
74100;SDS011;62462;52.530;21.682;2023-03-26T14:47:21;6.93;;;3.38;;
74100;SDS011;62462;52.530;21.682;2023-03-26T14:50:04;7.32;;;2.35;;
74100;SDS011;62462;52.530;21.682;2023-03-26T14:53:40;6.75;;;2.55;;
74100;SDS011;62462;52.530;21.682;2023-03-26T14:56:13;7.97;;;2.78;;
74100;SDS011;62462;52.530;21.682;2023-03-26T15:31:28;2.60;;;1.63;;
74100;SDS011;62462;52.530;21.682;2023-03-26T15:59:40;2.67;;;1.55;;
74100;SDS011;62462;52.530;21.682;2023-03-26T16:10:57;5.03;;;2.05;;
74100;SDS011;62462;52.530;21.682;2023-03-26T16:13:40;2.38;;;1.40;;
74100;SDS011;62462;52.530;21.682;2023-03-26T16:18:39;4.10;;;1.87;;
74100;SDS011;62462;52.530;21.682;2023-03-26T16:26:39;5.47;;;2.08;;
74100;SDS011;62462;52.530;21.682;2023-03-26T16:37:38;2.30;;;1.30;;
74100;SDS011;62462;52.530;21.682;2023-03-26T16:45:22;4.50;;;1.48;;
74100;SDS011;62462;52.530;21.682;2023-03-26T16:48:28;3.22;;;1.92;;
74100;SDS011;62462;52.530;21.682;2023-03-26T16:58:55;3.35;;;2.05;;
74100;SDS011;62462;52.530;21.682;2023-03-26T17:04:13;7.82;;;3.35;;
74100;SDS011;62462;52.530;21.682;2023-03-26T17:15:12;6.30;;;3.03;;
74100;SDS011;62462;52.530;21.682;2023-03-26T17:18:40;6.80;;;3.13;;
74100;SDS011;62462;52.530;21.682;2023-03-26T17:21:01;5.63;;;2.90;;
74100;SDS011;62462;52.530;21.682;2023-03-26T17:26:23;8.48;;;4.55;;
74100;SDS011;62462;52.530;21.682;2023-03-26T17:31:41;13.30;;;6.63;;
74100;SDS011;62462;52.530;21.682;2023-03-26T17:34:51;12.68;;;5.50;;
74100;SDS011;62462;52.530;21.682;2023-03-26T17:42:28;13.93;;;6.28;;
74100;SDS011;62462;52.530;21.682;2023-03-26T17:47:47;9.43;;;4.47;;
74100;SDS011;62462;52.530;21.682;2023-03-26T17:50:44;7.03;;;3.88;;
74100;SDS011;62462;52.530;21.682;2023-03-26T17:53:13;7.88;;;3.42;;
74100;SDS011;62462;52.530;21.682;2023-03-26T17:55:43;5.20;;;3.38;;
74100;SDS011;62462;52.530;21.682;2023-03-26T17:58:21;6.35;;;3.83;;
74100;SDS011;62462;52.530;21.682;2023-03-26T18:01:26;5.63;;;3.45;;
74100;SDS011;62462;52.530;21.682;2023-03-26T18:04:06;6.90;;;3.70;;
74100;SDS011;62462;52.530;21.682;2023-03-26T18:06:44;6.85;;;3.30;;
74100;SDS011;62462;52.530;21.682;2023-03-26T18:12:30;6.78;;;3.08;;
74100;SDS011;62462;52.530;21.682;2023-03-26T18:17:55;6.15;;;3.17;;
74100;SDS011;62462;52.530;21.682;2023-03-26T18:20:42;7.15;;;3.15;;
74100;SDS011;62462;52.530;21.682;2023-03-26T18:23:16;6.82;;;3.42;;
74100;SDS011;62462;52.530;21.682;2023-03-26T18:25:57;6.80;;;2.92;;
74100;SDS011;62462;52.530;21.682;2023-03-26T18:28:34;5.55;;;3.08;;
74100;SDS011;62462;52.530;21.682;2023-03-26T18:31:22;5.53;;;3.22;;
74100;SDS011;62462;52.530;21.682;2023-03-26T18:33:53;9.77;;;4.03;;
74100;SDS011;62462;52.530;21.682;2023-03-26T18:36:24;6.00;;;3.30;;
74100;SDS011;62462;52.530;21.682;2023-03-26T18:39:00;6.78;;;3.38;;
74100;SDS011;62462;52.530;21.682;2023-03-26T18:41:31;10.40;;;4.90;;
74100;SDS011;62462;52.530;21.682;2023-03-26T18:44:04;22.05;;;10.52;;
74100;SDS011;62462;52.530;21.682;2023-03-26T18:46:32;23.40;;;10.93;;
74100;SDS011;62462;52.530;21.682;2023-03-26T18:49:02;19.55;;;9.63;;
74100;SDS011;62462;52.530;21.682;2023-03-26T18:51:29;18.60;;;9.68;;
74100;SDS011;62462;52.530;21.682;2023-03-26T18:53:56;18.75;;;9.63;;
74100;SDS011;62462;52.530;21.682;2023-03-26T18:58:57;12.82;;;6.97;;
74100;SDS011;62462;52.530;21.682;2023-03-26T19:01:24;9.77;;;5.30;;
74100;SDS011;62462;52.530;21.682;2023-03-26T19:03:59;9.05;;;4.47;;
74100;SDS011;62462;52.530;21.682;2023-03-26T19:06:30;8.80;;;4.50;;
74100;SDS011;62462;52.530;21.682;2023-03-26T19:09:00;6.85;;;4.40;;
74100;SDS011;62462;52.530;21.682;2023-03-26T19:11:30;9.63;;;5.53;;
74100;SDS011;62462;52.530;21.682;2023-03-26T19:13:58;8.57;;;4.60;;
74100;SDS011;62462;52.530;21.682;2023-03-26T19:16:30;9.10;;;4.88;;
74100;SDS011;62462;52.530;21.682;2023-03-26T19:19:00;9.43;;;4.78;;
74100;SDS011;62462;52.530;21.682;2023-03-26T19:21:30;7.93;;;4.35;;
74100;SDS011;62462;52.530;21.682;2023-03-26T19:23:57;6.15;;;3.60;;
74100;SDS011;62462;52.530;21.682;2023-03-26T19:26:23;9.18;;;4.53;;
74100;SDS011;62462;52.530;21.682;2023-03-26T19:28:52;6.55;;;3.92;;
74100;SDS011;62462;52.530;21.682;2023-03-26T19:34:00;8.90;;;4.53;;
74100;SDS011;62462;52.530;21.682;2023-03-26T19:36:48;8.38;;;4.80;;
74100;SDS011;62462;52.530;21.682;2023-03-26T19:39:23;11.07;;;5.05;;
74100;SDS011;62462;52.530;21.682;2023-03-26T19:41:50;8.65;;;3.90;;
74100;SDS011;62462;52.530;21.682;2023-03-26T19:44:23;8.55;;;5.25;;
74100;SDS011;62462;52.530;21.682;2023-03-26T19:46:51;9.30;;;5.00;;
74100;SDS011;62462;52.530;21.682;2023-03-26T19:49:40;12.55;;;6.28;;
74100;SDS011;62462;52.530;21.682;2023-03-26T19:52:15;17.33;;;9.20;;
74100;SDS011;62462;52.530;21.682;2023-03-26T19:54:51;24.52;;;12.38;;
74100;SDS011;62462;52.530;21.682;2023-03-26T19:57:21;28.15;;;14.45;;
74100;SDS011;62462;52.530;21.682;2023-03-26T19:59:48;25.45;;;12.95;;
74100;SDS011;62462;52.530;21.682;2023-03-26T20:02:15;23.95;;;12.55;;
74100;SDS011;62462;52.530;21.682;2023-03-26T20:04:42;41.10;;;18.35;;
74100;SDS011;62462;52.530;21.682;2023-03-26T20:07:11;41.72;;;19.20;;
74100;SDS011;62462;52.530;21.682;2023-03-26T20:09:46;42.17;;;18.55;;
74100;SDS011;62462;52.530;21.682;2023-03-26T20:12:13;35.78;;;17.00;;
74100;SDS011;62462;52.530;21.682;2023-03-26T20:14:40;47.95;;;21.63;;
74100;SDS011;62462;52.530;21.682;2023-03-26T20:17:11;46.13;;;20.33;;
74100;SDS011;62462;52.530;21.682;2023-03-26T20:19:38;62.42;;;27.10;;
74100;SDS011;62462;52.530;21.682;2023-03-26T20:22:05;61.28;;;27.40;;
74100;SDS011;62462;52.530;21.682;2023-03-26T20:24:39;67.15;;;28.35;;
74100;SDS011;62462;52.530;21.682;2023-03-26T20:27:06;56.58;;;24.63;;
74100;SDS011;62462;52.530;21.682;2023-03-26T20:29:32;60.85;;;25.75;;
74100;SDS011;62462;52.530;21.682;2023-03-26T20:32:01;59.47;;;25.02;;
74100;SDS011;62462;52.530;21.682;2023-03-26T20:34:30;77.10;;;30.77;;
74100;SDS011;62462;52.530;21.682;2023-03-26T20:36:56;108.68;;;41.53;;
74100;SDS011;62462;52.530;21.682;2023-03-26T20:39:23;101.70;;;40.60;;
74100;SDS011;62462;52.530;21.682;2023-03-26T20:41:49;106.70;;;42.33;;
74100;SDS011;62462;52.530;21.682;2023-03-26T20:44:18;67.65;;;27.70;;
74100;SDS011;62462;52.530;21.682;2023-03-26T20:46:46;54.90;;;24.55;;
74100;SDS011;62462;52.530;21.682;2023-03-26T20:49:13;54.22;;;24.08;;
74100;SDS011;62462;52.530;21.682;2023-03-26T20:51:39;47.33;;;22.65;;
74100;SDS011;62462;52.530;21.682;2023-03-26T20:54:11;41.17;;;19.52;;
74100;SDS011;62462;52.530;21.682;2023-03-26T20:56:42;39.13;;;19.30;;
74100;SDS011;62462;52.530;21.682;2023-03-26T20:59:09;34.78;;;17.60;;
74100;SDS011;62462;52.530;21.682;2023-03-26T21:01:35;29.65;;;15.32;;
74100;SDS011;62462;52.530;21.682;2023-03-26T21:04:02;30.33;;;14.38;;
74100;SDS011;62462;52.530;21.682;2023-03-26T21:06:28;29.73;;;15.32;;
74100;SDS011;62462;52.530;21.682;2023-03-26T21:08:54;31.95;;;15.38;;
74100;SDS011;62462;52.530;21.682;2023-03-26T21:14:00;35.53;;;16.50;;